sensor_id;sensor_type;location;lat;lon;timestamp;P1;durP1;ratioP1;P2;durP2;ratioP2
63836;SDS011;49991;50.518;30.486;2022-07-10T00:02:02;5.03;;;4.53;;
63836;SDS011;49991;50.518;30.486;2022-07-10T00:04:29;6.68;;;4.57;;
63836;SDS011;49991;50.518;30.486;2022-07-10T00:06:55;6.43;;;4.57;;
63836;SDS011;49991;50.518;30.486;2022-07-10T00:09:23;5.78;;;4.78;;
63836;SDS011;49991;50.518;30.486;2022-07-10T00:11:51;5.63;;;4.65;;
63836;SDS011;49991;50.518;30.486;2022-07-10T00:14:18;6.55;;;4.97;;
63836;SDS011;49991;50.518;30.486;2022-07-10T00:16:45;4.60;;;4.30;;
63836;SDS011;49991;50.518;30.486;2022-07-10T00:19:11;5.15;;;4.65;;
63836;SDS011;49991;50.518;30.486;2022-07-10T00:21:38;6.13;;;4.75;;
63836;SDS011;49991;50.518;30.486;2022-07-10T00:24:05;4.93;;;4.43;;
63836;SDS011;49991;50.518;30.486;2022-07-10T00:26:32;5.32;;;4.35;;
63836;SDS011;49991;50.518;30.486;2022-07-10T00:29:00;4.97;;;4.50;;
63836;SDS011;49991;50.518;30.486;2022-07-10T00:31:27;4.80;;;4.35;;
63836;SDS011;49991;50.518;30.486;2022-07-10T00:33:53;4.93;;;4.32;;
63836;SDS011;49991;50.518;30.486;2022-07-10T00:36:20;4.93;;;4.47;;
63836;SDS011;49991;50.518;30.486;2022-07-10T00:38:46;4.90;;;4.40;;
63836;SDS011;49991;50.518;30.486;2022-07-10T00:41:13;7.90;;;4.80;;
63836;SDS011;49991;50.518;30.486;2022-07-10T00:43:53;5.10;;;4.43;;
63836;SDS011;49991;50.518;30.486;2022-07-10T00:46:22;4.30;;;3.90;;
63836;SDS011;49991;50.518;30.486;2022-07-10T00:48:49;8.18;;;5.05;;
63836;SDS011;49991;50.518;30.486;2022-07-10T00:51:16;6.28;;;4.45;;
63836;SDS011;49991;50.518;30.486;2022-07-10T00:53:44;5.63;;;4.60;;
63836;SDS011;49991;50.518;30.486;2022-07-10T00:56:11;6.32;;;4.40;;
63836;SDS011;49991;50.518;30.486;2022-07-10T00:58:39;4.88;;;4.35;;
63836;SDS011;49991;50.518;30.486;2022-07-10T01:01:07;4.68;;;4.28;;
63836;SDS011;49991;50.518;30.486;2022-07-10T01:03:35;5.60;;;4.25;;
63836;SDS011;49991;50.518;30.486;2022-07-10T01:06:02;5.50;;;4.25;;
63836;SDS011;49991;50.518;30.486;2022-07-10T01:08:29;6.25;;;4.32;;
63836;SDS011;49991;50.518;30.486;2022-07-10T01:10:56;7.75;;;4.55;;
63836;SDS011;49991;50.518;30.486;2022-07-10T01:13:24;4.95;;;4.18;;
63836;SDS011;49991;50.518;30.486;2022-07-10T01:15:50;6.22;;;4.43;;
63836;SDS011;49991;50.518;30.486;2022-07-10T01:18:18;4.53;;;4.13;;
63836;SDS011;49991;50.518;30.486;2022-07-10T01:23:20;4.72;;;4.30;;
63836;SDS011;49991;50.518;30.486;2022-07-10T01:25:47;7.57;;;4.32;;
63836;SDS011;49991;50.518;30.486;2022-07-10T01:28:14;4.85;;;4.45;;
63836;SDS011;49991;50.518;30.486;2022-07-10T01:30:41;4.20;;;3.80;;
63836;SDS011;49991;50.518;30.486;2022-07-10T01:33:08;5.85;;;4.38;;
63836;SDS011;49991;50.518;30.486;2022-07-10T01:35:35;4.20;;;3.85;;
63836;SDS011;49991;50.518;30.486;2022-07-10T01:38:03;4.90;;;4.38;;
63836;SDS011;49991;50.518;30.486;2022-07-10T01:40:30;5.72;;;4.20;;
63836;SDS011;49991;50.518;30.486;2022-07-10T01:42:56;4.45;;;4.05;;
63836;SDS011;49991;50.518;30.486;2022-07-10T01:45:23;4.72;;;4.22;;
63836;SDS011;49991;50.518;30.486;2022-07-10T01:47:50;5.03;;;4.05;;
63836;SDS011;49991;50.518;30.486;2022-07-10T01:50:17;5.03;;;4.63;;
63836;SDS011;49991;50.518;30.486;2022-07-10T01:52:44;4.70;;;4.30;;
63836;SDS011;49991;50.518;30.486;2022-07-10T01:55:12;5.55;;;3.80;;
63836;SDS011;49991;50.518;30.486;2022-07-10T01:57:39;4.18;;;3.75;;
63836;SDS011;49991;50.518;30.486;2022-07-10T02:00:06;5.07;;;4.43;;
63836;SDS011;49991;50.518;30.486;2022-07-10T02:02:40;4.53;;;4.13;;
63836;SDS011;49991;50.518;30.486;2022-07-10T02:05:27;10.88;;;4.72;;
63836;SDS011;49991;50.518;30.486;2022-07-10T02:07:53;5.00;;;4.20;;
63836;SDS011;49991;50.518;30.486;2022-07-10T02:10:21;6.20;;;4.43;;
63836;SDS011;49991;50.518;30.486;2022-07-10T02:12:48;4.85;;;4.35;;
63836;SDS011;49991;50.518;30.486;2022-07-10T02:15:14;8.15;;;4.35;;
63836;SDS011;49991;50.518;30.486;2022-07-10T02:17:41;4.60;;;4.20;;
63836;SDS011;49991;50.518;30.486;2022-07-10T02:20:08;4.75;;;4.30;;
63836;SDS011;49991;50.518;30.486;2022-07-10T02:22:36;4.78;;;4.28;;
63836;SDS011;49991;50.518;30.486;2022-07-10T02:25:02;8.43;;;4.70;;
63836;SDS011;49991;50.518;30.486;2022-07-10T02:27:31;4.78;;;4.30;;
63836;SDS011;49991;50.518;30.486;2022-07-10T02:29:58;6.18;;;4.35;;
63836;SDS011;49991;50.518;30.486;2022-07-10T02:32:25;6.80;;;4.22;;
63836;SDS011;49991;50.518;30.486;2022-07-10T02:34:51;4.60;;;4.20;;
63836;SDS011;49991;50.518;30.486;2022-07-10T02:37:18;4.82;;;4.10;;
63836;SDS011;49991;50.518;30.486;2022-07-10T02:39:45;5.07;;;4.30;;
63836;SDS011;49991;50.518;30.486;2022-07-10T02:42:11;5.82;;;4.20;;
63836;SDS011;49991;50.518;30.486;2022-07-10T02:44:39;5.63;;;4.50;;
63836;SDS011;49991;50.518;30.486;2022-07-10T02:47:06;4.55;;;4.13;;
63836;SDS011;49991;50.518;30.486;2022-07-10T02:49:33;4.45;;;4.05;;
63836;SDS011;49991;50.518;30.486;2022-07-10T02:52:00;5.45;;;3.97;;
63836;SDS011;49991;50.518;30.486;2022-07-10T02:54:26;5.15;;;4.65;;
63836;SDS011;49991;50.518;30.486;2022-07-10T02:56:53;4.70;;;4.20;;
63836;SDS011;49991;50.518;30.486;2022-07-10T02:59:20;6.15;;;4.35;;
63836;SDS011;49991;50.518;30.486;2022-07-10T03:01:48;4.90;;;4.40;;
63836;SDS011;49991;50.518;30.486;2022-07-10T03:04:14;4.75;;;4.35;;
63836;SDS011;49991;50.518;30.486;2022-07-10T03:06:41;6.82;;;4.40;;
63836;SDS011;49991;50.518;30.486;2022-07-10T03:09:08;4.70;;;4.25;;
63836;SDS011;49991;50.518;30.486;2022-07-10T03:11:34;5.13;;;4.18;;
63836;SDS011;49991;50.518;30.486;2022-07-10T03:14:01;4.40;;;4.00;;
63836;SDS011;49991;50.518;30.486;2022-07-10T03:16:27;4.70;;;4.20;;
63836;SDS011;49991;50.518;30.486;2022-07-10T03:18:56;4.72;;;4.38;;
63836;SDS011;49991;50.518;30.486;2022-07-10T03:21:22;4.82;;;4.38;;
63836;SDS011;49991;50.518;30.486;2022-07-10T03:23:49;7.03;;;4.53;;
63836;SDS011;49991;50.518;30.486;2022-07-10T03:26:16;4.68;;;4.07;;
63836;SDS011;49991;50.518;30.486;2022-07-10T03:28:42;4.80;;;4.18;;
63836;SDS011;49991;50.518;30.486;2022-07-10T03:31:09;4.90;;;4.18;;
63836;SDS011;49991;50.518;30.486;2022-07-10T03:33:36;6.20;;;4.20;;
63836;SDS011;49991;50.518;30.486;2022-07-10T03:36:04;6.03;;;3.97;;
63836;SDS011;49991;50.518;30.486;2022-07-10T03:38:31;4.78;;;4.30;;
63836;SDS011;49991;50.518;30.486;2022-07-10T03:40:57;5.40;;;4.40;;
63836;SDS011;49991;50.518;30.486;2022-07-10T03:43:24;4.47;;;4.00;;
63836;SDS011;49991;50.518;30.486;2022-07-10T03:45:51;4.47;;;3.38;;
63836;SDS011;49991;50.518;30.486;2022-07-10T03:48:18;4.35;;;3.95;;
63836;SDS011;49991;50.518;30.486;2022-07-10T03:50:44;4.82;;;3.70;;
63836;SDS011;49991;50.518;30.486;2022-07-10T03:53:12;5.03;;;3.50;;
63836;SDS011;49991;50.518;30.486;2022-07-10T03:55:39;6.03;;;3.65;;
63836;SDS011;49991;50.518;30.486;2022-07-10T03:58:06;4.07;;;3.65;;
63836;SDS011;49991;50.518;30.486;2022-07-10T04:00:31;4.15;;;3.20;;
63836;SDS011;49991;50.518;30.486;2022-07-10T04:02:59;4.82;;;3.58;;
63836;SDS011;49991;50.518;30.486;2022-07-10T04:05:27;3.53;;;3.22;;
63836;SDS011;49991;50.518;30.486;2022-07-10T04:07:54;5.13;;;4.15;;
63836;SDS011;49991;50.518;30.486;2022-07-10T04:10:23;4.05;;;3.65;;
63836;SDS011;49991;50.518;30.486;2022-07-10T04:12:50;3.65;;;3.33;;
63836;SDS011;49991;50.518;30.486;2022-07-10T04:15:17;4.35;;;3.80;;
63836;SDS011;49991;50.518;30.486;2022-07-10T04:17:45;3.65;;;3.30;;
63836;SDS011;49991;50.518;30.486;2022-07-10T04:20:12;3.50;;;3.30;;
63836;SDS011;49991;50.518;30.486;2022-07-10T04:22:39;3.88;;;3.40;;
63836;SDS011;49991;50.518;30.486;2022-07-10T04:25:05;8.60;;;3.75;;
63836;SDS011;49991;50.518;30.486;2022-07-10T04:27:34;4.53;;;3.25;;
63836;SDS011;49991;50.518;30.486;2022-07-10T04:30:01;3.90;;;3.50;;
63836;SDS011;49991;50.518;30.486;2022-07-10T04:32:29;3.88;;;3.50;;
63836;SDS011;49991;50.518;30.486;2022-07-10T04:34:57;4.95;;;3.42;;
63836;SDS011;49991;50.518;30.486;2022-07-10T04:37:24;4.75;;;3.70;;
63836;SDS011;49991;50.518;30.486;2022-07-10T04:39:51;3.72;;;3.30;;
63836;SDS011;49991;50.518;30.486;2022-07-10T04:42:17;3.80;;;3.20;;
63836;SDS011;49991;50.518;30.486;2022-07-10T04:44:45;4.00;;;3.33;;
63836;SDS011;49991;50.518;30.486;2022-07-10T04:47:12;3.90;;;3.53;;
63836;SDS011;49991;50.518;30.486;2022-07-10T04:49:38;4.40;;;3.30;;
63836;SDS011;49991;50.518;30.486;2022-07-10T04:52:05;3.40;;;3.20;;
63836;SDS011;49991;50.518;30.486;2022-07-10T04:54:32;5.07;;;3.35;;
63836;SDS011;49991;50.518;30.486;2022-07-10T04:56:59;3.65;;;3.20;;
63836;SDS011;49991;50.518;30.486;2022-07-10T04:59:26;3.55;;;3.20;;
63836;SDS011;49991;50.518;30.486;2022-07-10T05:01:54;7.32;;;4.05;;
63836;SDS011;49991;50.518;30.486;2022-07-10T05:04:21;4.97;;;3.15;;
63836;SDS011;49991;50.518;30.486;2022-07-10T05:06:47;6.32;;;3.40;;
63836;SDS011;49991;50.518;30.486;2022-07-10T05:09:14;3.60;;;3.28;;
63836;SDS011;49991;50.518;30.486;2022-07-10T05:11:41;4.95;;;3.10;;
63836;SDS011;49991;50.518;30.486;2022-07-10T05:14:07;3.70;;;3.00;;
63836;SDS011;49991;50.518;30.486;2022-07-10T05:16:34;4.47;;;3.05;;
63836;SDS011;49991;50.518;30.486;2022-07-10T05:19:02;3.28;;;2.95;;
63836;SDS011;49991;50.518;30.486;2022-07-10T05:21:29;3.83;;;3.00;;
63836;SDS011;49991;50.518;30.486;2022-07-10T05:23:56;4.53;;;3.00;;
63836;SDS011;49991;50.518;30.486;2022-07-10T05:26:23;3.13;;;2.92;;
63836;SDS011;49991;50.518;30.486;2022-07-10T05:28:49;3.28;;;3.00;;
63836;SDS011;49991;50.518;30.486;2022-07-10T05:31:16;3.85;;;2.80;;
63836;SDS011;49991;50.518;30.486;2022-07-10T05:33:43;3.65;;;2.67;;
63836;SDS011;49991;50.518;30.486;2022-07-10T05:36:11;3.05;;;2.80;;
63836;SDS011;49991;50.518;30.486;2022-07-10T05:38:37;4.45;;;3.10;;
63836;SDS011;49991;50.518;30.486;2022-07-10T05:41:04;3.60;;;3.30;;
63836;SDS011;49991;50.518;30.486;2022-07-10T05:43:31;3.38;;;3.13;;
63836;SDS011;49991;50.518;30.486;2022-07-10T05:45:58;3.25;;;3.00;;
63836;SDS011;49991;50.518;30.486;2022-07-10T05:48:24;3.38;;;3.00;;
63836;SDS011;49991;50.518;30.486;2022-07-10T05:50:51;4.05;;;2.97;;
63836;SDS011;49991;50.518;30.486;2022-07-10T05:53:19;3.33;;;3.05;;
63836;SDS011;49991;50.518;30.486;2022-07-10T05:55:46;3.20;;;3.00;;
63836;SDS011;49991;50.518;30.486;2022-07-10T05:58:13;3.40;;;3.10;;
63836;SDS011;49991;50.518;30.486;2022-07-10T06:00:40;4.88;;;2.95;;
63836;SDS011;49991;50.518;30.486;2022-07-10T06:03:08;3.53;;;3.22;;
63836;SDS011;49991;50.518;30.486;2022-07-10T06:05:35;4.50;;;3.50;;
63836;SDS011;49991;50.518;30.486;2022-07-10T06:08:02;3.53;;;3.22;;
63836;SDS011;49991;50.518;30.486;2022-07-10T06:10:31;3.67;;;3.17;;
63836;SDS011;49991;50.518;30.486;2022-07-10T06:12:57;4.20;;;3.60;;
63836;SDS011;49991;50.518;30.486;2022-07-10T06:15:24;3.25;;;3.05;;
63836;SDS011;49991;50.518;30.486;2022-07-10T06:17:51;3.25;;;2.97;;
63836;SDS011;49991;50.518;30.486;2022-07-10T06:20:17;4.10;;;3.22;;
63836;SDS011;49991;50.518;30.486;2022-07-10T06:22:44;3.13;;;2.92;;
63836;SDS011;49991;50.518;30.486;2022-07-10T06:25:11;3.58;;;3.28;;
63836;SDS011;49991;50.518;30.486;2022-07-10T06:27:39;3.47;;;2.97;;
63836;SDS011;49991;50.518;30.486;2022-07-10T06:30:06;4.40;;;3.35;;
63836;SDS011;49991;50.518;30.486;2022-07-10T06:32:33;5.13;;;3.20;;
63836;SDS011;49991;50.518;30.486;2022-07-10T06:35:00;3.83;;;3.35;;
63836;SDS011;49991;50.518;30.486;2022-07-10T06:37:27;3.45;;;3.15;;
63836;SDS011;49991;50.518;30.486;2022-07-10T06:39:53;3.35;;;3.10;;
63836;SDS011;49991;50.518;30.486;2022-07-10T06:42:20;4.93;;;3.50;;
63836;SDS011;49991;50.518;30.486;2022-07-10T06:44:50;4.40;;;3.30;;
63836;SDS011;49991;50.518;30.486;2022-07-10T06:47:17;5.10;;;3.70;;
63836;SDS011;49991;50.518;30.486;2022-07-10T06:50:03;3.42;;;3.13;;
63836;SDS011;49991;50.518;30.486;2022-07-10T06:52:30;3.40;;;3.20;;
63836;SDS011;49991;50.518;30.486;2022-07-10T06:54:57;3.70;;;3.40;;
63836;SDS011;49991;50.518;30.486;2022-07-10T06:57:24;6.15;;;3.60;;
63836;SDS011;49991;50.518;30.486;2022-07-10T06:59:52;4.22;;;3.83;;
63836;SDS011;49991;50.518;30.486;2022-07-10T07:02:19;6.95;;;3.60;;
63836;SDS011;49991;50.518;30.486;2022-07-10T07:04:46;5.00;;;3.40;;
63836;SDS011;49991;50.518;30.486;2022-07-10T07:07:13;3.58;;;3.25;;
63836;SDS011;49991;50.518;30.486;2022-07-10T07:09:40;4.70;;;3.40;;
63836;SDS011;49991;50.518;30.486;2022-07-10T07:12:08;6.32;;;4.13;;
63836;SDS011;49991;50.518;30.486;2022-07-10T07:14:35;3.90;;;3.50;;
63836;SDS011;49991;50.518;30.486;2022-07-10T07:17:04;5.13;;;3.78;;
63836;SDS011;49991;50.518;30.486;2022-07-10T07:19:34;3.90;;;3.50;;
63836;SDS011;49991;50.518;30.486;2022-07-10T07:22:15;3.80;;;3.50;;
63836;SDS011;49991;50.518;30.486;2022-07-10T07:24:59;5.38;;;3.88;;
63836;SDS011;49991;50.518;30.486;2022-07-10T07:27:26;4.18;;;3.75;;
63836;SDS011;49991;50.518;30.486;2022-07-10T07:29:52;5.35;;;3.88;;
63836;SDS011;49991;50.518;30.486;2022-07-10T07:32:20;4.20;;;3.58;;
63836;SDS011;49991;50.518;30.486;2022-07-10T07:34:47;4.38;;;3.95;;
63836;SDS011;49991;50.518;30.486;2022-07-10T07:37:14;5.63;;;3.88;;
63836;SDS011;49991;50.518;30.486;2022-07-10T07:39:40;4.15;;;3.63;;
63836;SDS011;49991;50.518;30.486;2022-07-10T07:42:07;4.55;;;3.63;;
63836;SDS011;49991;50.518;30.486;2022-07-10T07:44:34;7.57;;;4.88;;
63836;SDS011;49991;50.518;30.486;2022-07-10T07:47:01;4.88;;;4.25;;
63836;SDS011;49991;50.518;30.486;2022-07-10T07:49:29;3.88;;;3.60;;
63836;SDS011;49991;50.518;30.486;2022-07-10T07:51:55;5.25;;;3.83;;
63836;SDS011;49991;50.518;30.486;2022-07-10T07:54:22;4.40;;;4.00;;
63836;SDS011;49991;50.518;30.486;2022-07-10T07:56:49;4.18;;;3.40;;
63836;SDS011;49991;50.518;30.486;2022-07-10T07:59:15;4.30;;;3.85;;
63836;SDS011;49991;50.518;30.486;2022-07-10T08:01:42;3.80;;;3.42;;
63836;SDS011;49991;50.518;30.486;2022-07-10T08:04:09;3.40;;;3.20;;
63836;SDS011;49991;50.518;30.486;2022-07-10T08:06:37;3.55;;;3.25;;
63836;SDS011;49991;50.518;30.486;2022-07-10T08:09:03;3.65;;;3.30;;
63836;SDS011;49991;50.518;30.486;2022-07-10T08:11:31;3.63;;;3.35;;
63836;SDS011;49991;50.518;30.486;2022-07-10T08:13:57;3.53;;;3.30;;
63836;SDS011;49991;50.518;30.486;2022-07-10T08:16:24;3.40;;;3.17;;
63836;SDS011;49991;50.518;30.486;2022-07-10T08:18:51;3.53;;;3.22;;
63836;SDS011;49991;50.518;30.486;2022-07-10T08:21:18;3.85;;;3.25;;
63836;SDS011;49991;50.518;30.486;2022-07-10T08:23:46;3.80;;;3.47;;
63836;SDS011;49991;50.518;30.486;2022-07-10T08:26:12;4.65;;;3.42;;
63836;SDS011;49991;50.518;30.486;2022-07-10T08:28:39;3.72;;;3.40;;
63836;SDS011;49991;50.518;30.486;2022-07-10T08:31:06;3.15;;;2.95;;
63836;SDS011;49991;50.518;30.486;2022-07-10T08:33:32;6.10;;;3.28;;
63836;SDS011;49991;50.518;30.486;2022-07-10T08:35:59;3.42;;;3.10;;
63836;SDS011;49991;50.518;30.486;2022-07-10T08:38:26;3.72;;;3.00;;
63836;SDS011;49991;50.518;30.486;2022-07-10T08:40:54;3.50;;;3.20;;
63836;SDS011;49991;50.518;30.486;2022-07-10T08:43:23;3.58;;;3.30;;
63836;SDS011;49991;50.518;30.486;2022-07-10T08:45:51;3.40;;;2.97;;
63836;SDS011;49991;50.518;30.486;2022-07-10T08:48:21;3.10;;;2.90;;
63836;SDS011;49991;50.518;30.486;2022-07-10T08:50:52;3.25;;;2.80;;
63836;SDS011;49991;50.518;30.486;2022-07-10T08:53:23;3.83;;;3.20;;
63836;SDS011;49991;50.518;30.486;2022-07-10T08:55:57;3.40;;;3.20;;
63836;SDS011;49991;50.518;30.486;2022-07-10T08:58:23;3.03;;;2.83;;
63836;SDS011;49991;50.518;30.486;2022-07-10T09:00:52;3.72;;;3.03;;
63836;SDS011;49991;50.518;30.486;2022-07-10T09:03:19;3.40;;;3.10;;
63836;SDS011;49991;50.518;30.486;2022-07-10T09:05:46;3.60;;;2.72;;
63836;SDS011;49991;50.518;30.486;2022-07-10T09:08:21;3.20;;;2.90;;
63836;SDS011;49991;50.518;30.486;2022-07-10T09:10:48;3.65;;;3.10;;
63836;SDS011;49991;50.518;30.486;2022-07-10T09:13:17;3.22;;;3.03;;
63836;SDS011;49991;50.518;30.486;2022-07-10T09:15:48;4.95;;;3.30;;
63836;SDS011;49991;50.518;30.486;2022-07-10T09:18:18;3.20;;;3.00;;
63836;SDS011;49991;50.518;30.486;2022-07-10T09:20:45;4.20;;;3.08;;
63836;SDS011;49991;50.518;30.486;2022-07-10T09:23:16;3.05;;;2.75;;
63836;SDS011;49991;50.518;30.486;2022-07-10T09:25:44;3.58;;;3.28;;
63836;SDS011;49991;50.518;30.486;2022-07-10T09:28:12;3.00;;;2.80;;
63836;SDS011;49991;50.518;30.486;2022-07-10T09:30:43;3.30;;;2.95;;
63836;SDS011;49991;50.518;30.486;2022-07-10T09:33:15;3.30;;;3.00;;
63836;SDS011;49991;50.518;30.486;2022-07-10T09:35:54;2.90;;;2.70;;
63836;SDS011;49991;50.518;30.486;2022-07-10T09:38:33;4.60;;;2.90;;
63836;SDS011;49991;50.518;30.486;2022-07-10T09:41:16;2.97;;;2.78;;
63836;SDS011;49991;50.518;30.486;2022-07-10T09:43:44;3.80;;;2.67;;
63836;SDS011;49991;50.518;30.486;2022-07-10T09:46:12;2.53;;;2.40;;
63836;SDS011;49991;50.518;30.486;2022-07-10T09:48:40;3.38;;;2.60;;
63836;SDS011;49991;50.518;30.486;2022-07-10T09:51:07;2.40;;;2.30;;
63836;SDS011;49991;50.518;30.486;2022-07-10T09:53:36;2.42;;;2.28;;
63836;SDS011;49991;50.518;30.486;2022-07-10T09:56:05;2.55;;;2.40;;
63836;SDS011;49991;50.518;30.486;2022-07-10T09:58:33;2.33;;;2.13;;
63836;SDS011;49991;50.518;30.486;2022-07-10T10:01:02;2.78;;;2.58;;
63836;SDS011;49991;50.518;30.486;2022-07-10T10:03:31;2.35;;;2.20;;
63836;SDS011;49991;50.518;30.486;2022-07-10T10:06:02;3.17;;;2.80;;
63836;SDS011;49991;50.518;30.486;2022-07-10T10:08:31;2.60;;;2.45;;
63836;SDS011;49991;50.518;30.486;2022-07-10T10:11:04;2.88;;;2.67;;
63836;SDS011;49991;50.518;30.486;2022-07-10T10:13:34;3.03;;;2.70;;
63836;SDS011;49991;50.518;30.486;2022-07-10T10:16:01;2.90;;;2.70;;
63836;SDS011;49991;50.518;30.486;2022-07-10T10:18:28;2.90;;;2.70;;
63836;SDS011;49991;50.518;30.486;2022-07-10T10:20:57;3.35;;;3.05;;
63836;SDS011;49991;50.518;30.486;2022-07-10T10:23:23;3.00;;;2.80;;
63836;SDS011;49991;50.518;30.486;2022-07-10T10:25:53;2.72;;;2.63;;
63836;SDS011;49991;50.518;30.486;2022-07-10T10:28:22;3.20;;;2.92;;
63836;SDS011;49991;50.518;30.486;2022-07-10T10:30:50;2.90;;;2.70;;
63836;SDS011;49991;50.518;30.486;2022-07-10T10:36:15;3.20;;;2.53;;
63836;SDS011;49991;50.518;30.486;2022-07-10T10:39:11;3.20;;;2.88;;
63836;SDS011;49991;50.518;30.486;2022-07-10T10:41:39;3.15;;;2.95;;
63836;SDS011;49991;50.518;30.486;2022-07-10T10:44:20;4.00;;;2.80;;
63836;SDS011;49991;50.518;30.486;2022-07-10T10:46:58;2.97;;;2.63;;
63836;SDS011;49991;50.518;30.486;2022-07-10T10:49:50;2.78;;;2.67;;
63836;SDS011;49991;50.518;30.486;2022-07-10T10:52:25;2.95;;;2.60;;
63836;SDS011;49991;50.518;30.486;2022-07-10T10:54:59;2.75;;;2.58;;
63836;SDS011;49991;50.518;30.486;2022-07-10T10:57:36;4.60;;;2.90;;
63836;SDS011;49991;50.518;30.486;2022-07-10T11:00:29;3.00;;;2.70;;
63836;SDS011;49991;50.518;30.486;2022-07-10T11:03:13;2.92;;;2.67;;
63836;SDS011;49991;50.518;30.486;2022-07-10T11:05:41;2.53;;;2.40;;
63836;SDS011;49991;50.518;30.486;2022-07-10T11:08:11;2.90;;;2.70;;
63836;SDS011;49991;50.518;30.486;2022-07-10T11:10:40;2.72;;;2.58;;
63836;SDS011;49991;50.518;30.486;2022-07-10T11:13:08;3.05;;;2.65;;
63836;SDS011;49991;50.518;30.486;2022-07-10T11:15:36;3.15;;;2.28;;
63836;SDS011;49991;50.518;30.486;2022-07-10T11:18:05;2.25;;;2.15;;
63836;SDS011;49991;50.518;30.486;2022-07-10T11:20:33;2.60;;;2.40;;
63836;SDS011;49991;50.518;30.486;2022-07-10T11:23:06;2.00;;;1.90;;
63836;SDS011;49991;50.518;30.486;2022-07-10T11:25:45;1.98;;;1.88;;
63836;SDS011;49991;50.518;30.486;2022-07-10T11:28:28;2.28;;;2.17;;
63836;SDS011;49991;50.518;30.486;2022-07-10T11:31:02;1.98;;;1.88;;
63836;SDS011;49991;50.518;30.486;2022-07-10T11:33:29;2.30;;;2.10;;
63836;SDS011;49991;50.518;30.486;2022-07-10T11:36:09;2.40;;;2.15;;
63836;SDS011;49991;50.518;30.486;2022-07-10T11:38:40;2.20;;;2.00;;
63836;SDS011;49991;50.518;30.486;2022-07-10T11:41:14;2.85;;;2.30;;
63836;SDS011;49991;50.518;30.486;2022-07-10T11:43:48;2.38;;;2.28;;
63836;SDS011;49991;50.518;30.486;2022-07-10T11:46:15;2.40;;;2.25;;
63836;SDS011;49991;50.518;30.486;2022-07-10T11:48:43;2.10;;;2.00;;
63836;SDS011;49991;50.518;30.486;2022-07-10T11:51:17;2.20;;;2.10;;
63836;SDS011;49991;50.518;30.486;2022-07-10T11:53:57;2.45;;;2.28;;
63836;SDS011;49991;50.518;30.486;2022-07-10T11:56:26;7.63;;;2.72;;
63836;SDS011;49991;50.518;30.486;2022-07-10T11:58:58;58.85;;;12.73;;
63836;SDS011;49991;50.518;30.486;2022-07-10T12:01:27;39.85;;;9.35;;
63836;SDS011;49991;50.518;30.486;2022-07-10T12:03:55;21.08;;;5.60;;
63836;SDS011;49991;50.518;30.486;2022-07-10T12:06:23;14.45;;;4.57;;
63836;SDS011;49991;50.518;30.486;2022-07-10T12:08:51;9.88;;;3.42;;
63836;SDS011;49991;50.518;30.486;2022-07-10T12:11:19;6.60;;;2.80;;
63836;SDS011;49991;50.518;30.486;2022-07-10T12:13:47;4.28;;;2.20;;
63836;SDS011;49991;50.518;30.486;2022-07-10T12:16:16;5.65;;;2.20;;
63836;SDS011;49991;50.518;30.486;2022-07-10T12:18:43;2.13;;;1.75;;
63836;SDS011;49991;50.518;30.486;2022-07-10T12:21:10;2.10;;;2.00;;
63836;SDS011;49991;50.518;30.486;2022-07-10T12:23:38;2.30;;;2.10;;
63836;SDS011;49991;50.518;30.486;2022-07-10T12:26:07;2.08;;;1.92;;
63836;SDS011;49991;50.518;30.486;2022-07-10T12:31:32;1.88;;;1.75;;
63836;SDS011;49991;50.518;30.486;2022-07-10T12:34:00;2.30;;;2.03;;
63836;SDS011;49991;50.518;30.486;2022-07-10T12:36:41;2.22;;;2.10;;
63836;SDS011;49991;50.518;30.486;2022-07-10T12:39:09;1.77;;;1.70;;
63836;SDS011;49991;50.518;30.486;2022-07-10T12:44:36;1.92;;;1.83;;
63836;SDS011;49991;50.518;30.486;2022-07-10T12:47:05;1.90;;;1.80;;
63836;SDS011;49991;50.518;30.486;2022-07-10T12:49:53;1.88;;;1.77;;
63836;SDS011;49991;50.518;30.486;2022-07-10T12:52:21;2.05;;;1.90;;
63836;SDS011;49991;50.518;30.486;2022-07-10T12:55:04;2.83;;;2.03;;
63836;SDS011;49991;50.518;30.486;2022-07-10T12:57:31;2.13;;;1.90;;
63836;SDS011;49991;50.518;30.486;2022-07-10T13:00:04;1.70;;;1.70;;
63836;SDS011;49991;50.518;30.486;2022-07-10T13:02:31;2.83;;;2.10;;
63836;SDS011;49991;50.518;30.486;2022-07-10T13:04:58;2.00;;;1.90;;
63836;SDS011;49991;50.518;30.486;2022-07-10T13:07:28;2.13;;;2.00;;
63836;SDS011;49991;50.518;30.486;2022-07-10T13:09:58;2.03;;;1.80;;
63836;SDS011;49991;50.518;30.486;2022-07-10T13:12:25;2.00;;;1.90;;
63836;SDS011;49991;50.518;30.486;2022-07-10T13:14:52;1.80;;;1.70;;
63836;SDS011;49991;50.518;30.486;2022-07-10T13:17:20;1.80;;;1.70;;
63836;SDS011;49991;50.518;30.486;2022-07-10T13:19:48;1.90;;;1.80;;
63836;SDS011;49991;50.518;30.486;2022-07-10T13:22:16;2.13;;;1.83;;
63836;SDS011;49991;50.518;30.486;2022-07-10T13:24:43;2.60;;;1.80;;
63836;SDS011;49991;50.518;30.486;2022-07-10T13:27:10;1.83;;;1.50;;
63836;SDS011;49991;50.518;30.486;2022-07-10T13:29:36;1.90;;;1.80;;
63836;SDS011;49991;50.518;30.486;2022-07-10T13:32:03;1.83;;;1.70;;
63836;SDS011;49991;50.518;30.486;2022-07-10T13:34:32;3.50;;;1.92;;
63836;SDS011;49991;50.518;30.486;2022-07-10T13:37:00;1.83;;;1.73;;
63836;SDS011;49991;50.518;30.486;2022-07-10T13:39:27;1.70;;;1.65;;
63836;SDS011;49991;50.518;30.486;2022-07-10T13:41:54;1.80;;;1.70;;
63836;SDS011;49991;50.518;30.486;2022-07-10T13:44:20;2.17;;;2.03;;
63836;SDS011;49991;50.518;30.486;2022-07-10T13:46:47;2.55;;;1.60;;
63836;SDS011;49991;50.518;30.486;2022-07-10T13:49:14;2.35;;;1.50;;
63836;SDS011;49991;50.518;30.486;2022-07-10T13:51:42;1.67;;;1.60;;
63836;SDS011;49991;50.518;30.486;2022-07-10T13:54:09;1.88;;;1.77;;
63836;SDS011;49991;50.518;30.486;2022-07-10T13:56:35;2.90;;;1.88;;
63836;SDS011;49991;50.518;30.486;2022-07-10T13:59:02;4.60;;;1.80;;
63836;SDS011;49991;50.518;30.486;2022-07-10T14:01:29;1.70;;;1.70;;
63836;SDS011;49991;50.518;30.486;2022-07-10T14:03:55;1.75;;;1.70;;
63836;SDS011;49991;50.518;30.486;2022-07-10T14:06:22;1.90;;;1.80;;
63836;SDS011;49991;50.518;30.486;2022-07-10T14:08:50;2.10;;;2.00;;
63836;SDS011;49991;50.518;30.486;2022-07-10T14:11:17;2.00;;;1.90;;
63836;SDS011;49991;50.518;30.486;2022-07-10T14:13:44;1.92;;;1.83;;
63836;SDS011;49991;50.518;30.486;2022-07-10T14:16:11;1.88;;;1.70;;
63836;SDS011;49991;50.518;30.486;2022-07-10T14:18:38;1.83;;;1.73;;
63836;SDS011;49991;50.518;30.486;2022-07-10T14:21:06;1.90;;;1.80;;
63836;SDS011;49991;50.518;30.486;2022-07-10T14:23:35;1.88;;;1.77;;
63836;SDS011;49991;50.518;30.486;2022-07-10T14:26:05;2.10;;;1.85;;
63836;SDS011;49991;50.518;30.486;2022-07-10T14:28:32;1.60;;;1.60;;
63836;SDS011;49991;50.518;30.486;2022-07-10T14:31:00;3.80;;;1.90;;
63836;SDS011;49991;50.518;30.486;2022-07-10T14:33:28;1.80;;;1.70;;
63836;SDS011;49991;50.518;30.486;2022-07-10T14:35:56;1.80;;;1.70;;
63836;SDS011;49991;50.518;30.486;2022-07-10T14:38:22;2.00;;;1.80;;
63836;SDS011;49991;50.518;30.486;2022-07-10T14:40:49;2.20;;;1.77;;
63836;SDS011;49991;50.518;30.486;2022-07-10T14:43:19;1.98;;;1.80;;
63836;SDS011;49991;50.518;30.486;2022-07-10T14:45:51;1.70;;;1.60;;
63836;SDS011;49991;50.518;30.486;2022-07-10T14:48:18;1.77;;;1.67;;
63836;SDS011;49991;50.518;30.486;2022-07-10T14:50:45;2.03;;;1.80;;
63836;SDS011;49991;50.518;30.486;2022-07-10T14:53:11;1.80;;;1.70;;